Time;durP1;ratioP1;P1;durP2;ratioP2;P2;SDS_P1;SDS_P2;PMS_P1;PMS_P2;Temp;Humidity;BMP_temperature;BMP_pressure;BME280_temperature;BME280_humidity;BME280_pressure;Samples;Min_cycle;Max_cycle;Signal;HPM_P1;HPM_P2
2024/03/12 00:00:21;;;;;;;2.03;0.97;;;;;;;4.05;78.47;100052.63;4979899;28;20048;-75
2024/03/12 00:02:47;;;;;;;1.00;1.00;;;;;;;4.02;78.58;100050.22;5012420;28;20770;-75
2024/03/12 00:05:19;;;;;;;0.93;0.90;;;;;;;4.10;78.41;100055.78;5030164;28;20053;-77
2024/03/12 00:07:46;;;;;;;1.47;0.90;;;;;;;4.01;78.43;100064.31;4999256;28;20106;-76
2024/03/12 00:10:15;;;;;;;0.97;0.80;;;;;;;4.06;78.13;100057.78;5002218;28;20042;-77
2024/03/12 00:12:47;;;;;;;1.20;0.90;;;;;;;4.10;77.75;100061.06;5002394;28;20147;-77
2024/03/12 00:15:18;;;;;;;1.17;0.90;;;;;;;4.05;77.43;100048.22;5002772;28;20049;-76
2024/03/12 00:17:44;;;;;;;1.47;0.90;;;;;;;4.08;76.96;100055.03;5002693;28;20178;-76
2024/03/12 00:20:18;;;;;;;1.57;1.00;;;;;;;4.06;76.66;100064.84;5034690;28;20049;-75
2024/03/12 00:22:48;;;;;;;0.90;0.80;;;;;;;4.13;76.55;100055.56;5035087;28;20053;-76
2024/03/12 00:25:15;;;;;;;;;;;;;;;4.19;76.06;100060.41;5038936;28;20087;-73
2024/03/12 00:27:48;;;;;;;0.80;0.80;;;;;;;4.08;76.03;100055.91;4995183;28;19932;-77
2024/03/12 00:30:15;;;;;;;1.20;1.00;;;;;;;4.07;76.08;100056.00;5012446;28;20059;-77
2024/03/12 00:32:41;;;;;;;0.70;0.70;;;;;;;4.04;75.90;100064.09;5025948;28;20040;-75
2024/03/12 00:35:10;;;;;;;1.47;0.80;;;;;;;4.08;75.52;100060.31;5024092;28;20063;-76
2024/03/12 00:37:41;;;;;;;1.03;0.83;;;;;;;4.14;75.10;100065.13;5059014;28;20067;-76
2024/03/12 00:40:12;;;;;;;0.90;0.90;;;;;;;4.12;74.91;100070.50;5059452;28;20471;-79
2024/03/12 00:42:41;;;;;;;0.93;0.90;;;;;;;4.15;75.32;100061.56;5061571;28;20048;-75
2024/03/12 00:45:11;;;;;;;0.83;0.73;;;;;;;4.08;74.94;100066.41;5058347;28;20045;-77
2024/03/12 00:47:41;;;;;;;1.00;0.90;;;;;;;4.13;75.39;100066.94;5075841;28;20074;-76
2024/03/12 00:50:11;;;;;;;1.07;0.87;;;;;;;4.13;75.08;100060.84;5058012;28;20102;-76
2024/03/12 00:52:43;;;;;;;1.23;0.80;;;;;;;4.13;75.67;100066.94;5076682;28;20053;-76
2024/03/12 00:55:09;;;;;;;0.73;0.73;;;;;;;4.07;74.94;100069.16;5075252;28;20045;-78
2024/03/12 00:57:38;;;;;;;1.97;0.73;;;;;;;4.08;74.96;100062.94;5058084;28;20106;-76
2024/03/12 01:00:25;;;;;;;0.90;0.80;;;;;;;4.11;75.21;100073.22;5058696;28;20072;-78
2024/03/12 01:02:53;;;;;;;0.80;0.80;;;;;;;4.11;75.16;100067.97;5060839;28;20036;-79
2024/03/12 01:05:25;;;;;;;0.80;0.80;;;;;;;4.14;75.40;100065.13;5057340;28;20048;-74
2024/03/12 01:07:59;;;;;;;1.27;1.00;;;;;;;4.04;75.57;100062.34;5057586;28;20424;-75
2024/03/12 01:10:29;;;;;;;0.90;0.80;;;;;;;4.06;76.25;100064.84;5058165;28;20437;-75
2024/03/12 01:12:59;;;;;;;1.23;0.90;;;;;;;4.10;75.96;100064.53;5074583;28;20041;-75
2024/03/12 01:15:26;;;;;;;0.80;0.80;;;;;;;4.08;75.53;100063.78;5074182;28;20071;-76
2024/03/12 01:17:55;;;;;;;1.90;1.00;;;;;;;4.12;75.73;100069.69;5057391;28;20102;-77
2024/03/12 01:20:22;;;;;;;0.90;0.80;;;;;;;4.14;75.48;100067.75;5073826;28;20040;-76
2024/03/12 01:22:51;;;;;;;2.00;0.90;;;;;;;4.11;75.61;100067.97;5073730;28;20356;-77
2024/03/12 01:25:21;;;;;;;2.63;1.00;;;;;;;4.11;75.18;100054.84;5041141;28;20048;-76
2024/03/12 01:27:48;;;;;;;0.80;0.80;;;;;;;4.11;74.95;100070.59;5057439;28;20048;-76
2024/03/12 01:30:14;;;;;;;1.93;0.80;;;;;;;4.09;75.12;100059.38;5056844;28;20174;-77
2024/03/12 01:32:45;;;;;;;1.40;0.80;;;;;;;4.10;75.41;100058.41;5058929;28;20497;-76
2024/03/12 01:35:14;;;;;;;1.15;1.00;;;;;;;4.07;75.65;100056.00;5063191;28;20040;-76
2024/03/12 01:37:45;;;;;;;1.00;0.80;;;;;;;4.09;75.31;100062.00;5082219;28;20320;-76
2024/03/12 01:40:19;;;;;;;1.00;0.83;;;;;;;4.13;75.32;100066.09;5063224;28;20047;-77
2024/03/12 01:42:51;;;;;;;1.17;0.80;;;;;;;4.10;75.32;100061.06;5021790;28;20106;-76
2024/03/12 01:45:20;;;;;;;1.00;0.80;;;;;;;4.11;74.90;100073.22;5016885;28;20065;-76
2024/03/12 01:47:50;;;;;;;0.80;0.80;;;;;;;4.08;74.65;100070.81;5016469;28;20955;-78
2024/03/12 01:50:21;;;;;;;1.33;1.00;;;;;;;4.12;74.56;100080.19;5016057;28;20298;-78
2024/03/12 01:52:50;;;;;;;0.80;0.80;;;;;;;4.13;74.61;100071.34;4999944;28;20431;-76
2024/03/12 01:55:18;;;;;;;0.80;0.80;;;;;;;4.08;74.56;100078.69;5016343;28;20045;-76
2024/03/12 01:57:47;;;;;;;2.23;0.90;;;;;;;4.06;74.82;100075.38;5000330;28;20072;-77
2024/03/12 02:00:15;;;;;;;0.93;0.83;;;;;;;4.11;74.85;100079.34;5016305;28;20057;-75
2024/03/12 02:02:42;;;;;;;2.63;1.00;;;;;;;4.08;74.81;100076.94;5015917;28;20424;-75
2024/03/12 02:05:12;;;;;;;0.97;0.80;;;;;;;4.13;75.03;100081.84;5017093;28;20151;-74
2024/03/12 02:07:39;;;;;;;;;;;;;;;4.17;75.44;100084.16;5000980;28;20420;-75
2024/03/12 02:10:07;;;;;;;1.00;0.90;;;;;;;4.06;75.28;100080.63;5016314;28;20483;-77
2024/03/12 02:12:33;;;;;;;0.80;0.80;;;;;;;3.99;75.87;100079.34;5017978;28;20393;-76
2024/03/12 02:15:03;;;;;;;1.10;0.90;;;;;;;4.01;75.84;100083.56;5073895;28;20430;-77
2024/03/12 02:17:33;;;;;;;1.30;1.20;;;;;;;4.03;75.72;100084.28;5056149;28;20048;-74
2024/03/12 02:20:00;;;;;;;1.40;0.83;;;;;;;4.00;75.53;100092.38;5015253;28;20551;-75
2024/03/12 02:22:27;;;;;;;1.87;1.03;;;;;;;4.02;75.99;100085.25;4999696;28;20380;-76
2024/03/12 02:24:53;;;;;;;1.47;0.90;;;;;;;4.03;75.77;100088.72;5016068;28;20149;-77
2024/03/12 02:27:19;;;;;;;0.80;0.80;;;;;;;4.01;75.60;100090.59;5016421;28;20037;-76
2024/03/12 02:29:45;;;;;;;0.80;0.80;;;;;;;4.04;76.00;100096.50;5032602;28;20068;-77
2024/03/12 02:32:11;;;;;;;1.10;1.00;;;;;;;3.99;76.03;100087.22;5016423;28;20041;-77
2024/03/12 02:34:37;;;;;;;1.13;0.80;;;;;;;4.03;75.87;100086.09;5017203;28;20453;-78
2024/03/12 02:37:03;;;;;;;1.83;0.90;;;;;;;4.03;75.51;100091.34;4982943;28;20143;-78
2024/03/12 02:39:30;;;;;;;1.13;0.83;;;;;;;4.07;75.50;100092.81;4982400;28;20053;-76
2024/03/12 02:41:58;;;;;;;1.17;0.90;;;;;;;4.02;75.72;100097.53;4956906;28;20062;-76
2024/03/12 02:44:24;;;;;;;1.17;0.90;;;;;;;4.02;75.73;100100.16;4956612;28;20062;-77
2024/03/12 02:46:52;;;;;;;1.67;1.03;;;;;;;3.99;75.81;100095.13;4940786;28;20139;-78
2024/03/12 02:49:19;;;;;;;2.00;0.70;;;;;;;4.03;76.16;100105.31;4956648;28;20086;-78
2024/03/12 02:51:46;;;;;;;1.10;0.83;;;;;;;3.96;76.07;100101.44;4973999;28;20046;-77
2024/03/12 02:54:13;;;;;;;2.10;0.80;;;;;;;3.99;76.12;100100.38;4967273;28;20490;-76
2024/03/12 02:56:39;;;;;;;1.03;0.80;;;;;;;4.01;76.04;100109.00;4979440;28;20496;-78
2024/03/12 02:59:08;;;;;;;1.10;0.90;;;;;;;3.98;76.51;100099.53;4971737;28;20054;-70
2024/03/12 03:01:35;;;;;;;1.20;0.90;;;;;;;4.01;76.63;100103.75;4971633;28;20470;-69
2024/03/12 03:04:02;;;;;;;1.00;0.90;;;;;;;4.03;76.44;100104.47;4987500;28;20065;-70
2024/03/12 03:06:29;;;;;;;0.80;0.80;;;;;;;4.00;76.57;100105.50;4987600;28;20521;-69
2024/03/12 03:08:55;;;;;;;1.10;0.90;;;;;;;3.99;76.40;100101.22;4971553;28;20469;-70
2024/03/12 03:11:20;;;;;;;0.90;0.90;;;;;;;4.01;76.50;100112.47;4971529;28;20085;-70
2024/03/12 03:13:46;;;;;;;2.17;1.07;;;;;;;4.00;76.40;100107.31;5005890;28;20054;-69
2024/03/12 03:16:15;;;;;;;2.03;0.90;;;;;;;4.07;76.54;100112.06;4979106;28;20477;-70
2024/03/12 03:18:41;;;;;;;1.07;0.80;;;;;;;4.01;76.89;100107.22;5011417;28;20076;-70
2024/03/12 03:21:08;;;;;;;2.40;1.17;;;;;;;3.99;76.79;100110.88;5012964;28;20041;-75
2024/03/12 03:23:41;;;;;;;1.23;0.90;;;;;;;3.99;77.20;100105.63;4998219;28;20091;-75
2024/03/12 03:26:10;;;;;;;0.80;0.80;;;;;;;4.00;77.79;100105.50;5015581;28;20196;-74
2024/03/12 03:28:37;;;;;;;1.27;0.80;;;;;;;3.94;77.55;100103.31;5013892;28;20136;-76
2024/03/12 03:31:12;;;;;;;2.00;0.90;;;;;;;4.04;78.05;100116.66;5015203;28;20057;-80
2024/03/12 03:33:43;;;;;;;1.50;1.00;;;;;;;4.00;77.19;100118.66;4918137;28;20050;-72
2024/03/12 03:36:09;;;;;;;0.80;0.80;;;;;;;3.96;77.68;100109.31;4969600;28;20459;-74
2024/03/12 03:38:40;;;;;;;1.13;0.97;;;;;;;3.95;77.52;100118.13;4997492;28;20054;-69
2024/03/12 03:41:10;;;;;;;1.30;1.08;;;;;;;4.06;77.90;100120.84;5013747;28;20037;-75
2024/03/12 03:43:36;;;;;;;2.37;1.00;;;;;;;4.01;77.52;100122.13;4997481;28;20049;-75
2024/03/12 03:46:03;;;;;;;1.70;1.10;;;;;;;4.01;77.67;100119.50;5013621;28;20045;-77
2024/03/12 03:48:29;;;;;;;1.43;0.90;;;;;;;4.01;77.96;100124.75;5014016;28;20049;-75
2024/03/12 03:50:56;;;;;;;2.07;1.10;;;;;;;4.01;78.17;100127.38;4998084;28;20110;-77
2024/03/12 03:53:23;;;;;;;1.50;1.07;;;;;;;3.97;78.17;100129.38;5013492;28;20163;-77
2024/03/12 03:55:49;;;;;;;2.60;1.00;;;;;;;3.97;78.37;100134.63;5015341;28;20042;-77
2024/03/12 03:58:16;;;;;;;3.47;1.27;;;;;;;3.96;78.54;100137.38;5015608;28;20353;-74
2024/03/12 04:00:42;;;;;;;2.00;1.10;;;;;;;3.97;78.65;100144.28;4999116;28;20136;-70
2024/03/12 04:03:09;;;;;;;1.17;1.07;;;;;;;3.98;78.51;100141.59;4998800;28;20052;-73
2024/03/12 04:05:35;;;;;;;2.47;0.93;;;;;;;4.00;78.74;100138.84;5031991;28;20397;-73
2024/03/12 04:08:06;;;;;;;5.23;1.00;;;;;;;4.02;78.99;100142.19;5035498;28;20091;-72
2024/03/12 04:10:34;;;;;;;1.30;0.97;;;;;;;4.05;78.46;100150.72;5036652;28;20037;-72
2024/03/12 04:13:20;;;;;;;0.80;0.80;;;;;;;4.06;78.68;100148.94;5052388;28;20060;-79
2024/03/12 04:15:47;;;;;;;2.33;1.00;;;;;;;4.06;78.53;100154.22;5036921;28;20127;-78
2024/03/12 04:18:13;;;;;;;0.97;0.93;;;;;;;4.06;78.10;100148.94;5035874;28;20044;-78
2024/03/12 04:20:39;;;;;;;1.33;1.10;;;;;;;4.05;78.41;100155.13;5021894;28;20044;-81
2024/03/12 04:23:05;;;;;;;1.73;1.00;;;;;;;4.08;78.20;100157.56;5069863;28;20052;-79
2024/03/12 04:25:30;;;;;;;1.30;1.13;;;;;;;4.11;77.93;100159.97;5063653;28;20040;-80
2024/03/12 04:27:56;;;;;;;1.47;1.03;;;;;;;4.14;77.54;100151.88;5046694;28;20051;-80
2024/03/12 04:30:22;;;;;;;1.60;1.07;;;;;;;4.22;77.42;100162.72;5019992;28;20071;-80
2024/03/12 04:32:49;;;;;;;2.93;2.13;;;;;;;4.25;77.91;100167.75;5003451;28;20085;-80
2024/03/12 04:35:15;;;;;;;2.57;2.00;;;;;;;4.30;79.01;100171.78;4998541;28;20030;-77
2024/03/12 04:37:45;;;;;;;2.20;1.70;;;;;;;4.36;78.71;100167.88;4993785;28;20080;-78
2024/03/12 04:40:12;;;;;;;2.43;1.53;;;;;;;4.37;77.52;100180.91;4968204;28;20070;-78
2024/03/12 04:42:43;;;;;;;2.97;1.77;;;;;;;4.39;77.33;100175.53;4951788;28;20410;-78
2024/03/12 04:45:09;;;;;;;2.50;1.35;;;;;;;4.41;77.22;100181.53;4935619;28;20556;-73
2024/03/12 04:47:40;;;;;;;2.10;1.40;;;;;;;4.41;77.71;100171.03;4946073;28;20047;-81
2024/03/12 04:50:07;;;;;;;2.13;1.10;;;;;;;4.51;77.17;100190.47;4940326;28;20057;-81
2024/03/12 04:52:33;;;;;;;1.70;1.20;;;;;;;4.52;76.17;100189.53;4964875;28;20125;-77
2024/03/12 04:55:00;;;;;;;1.50;1.03;;;;;;;4.59;76.34;100190.78;4966546;28;20071;-77
2024/03/12 04:57:26;;;;;;;1.50;1.10;;;;;;;4.58;75.66;100192.56;4950314;28;20089;-82
2024/03/12 04:59:52;;;;;;;1.53;1.13;;;;;;;4.61;75.36;100184.44;4960267;28;20073;-73
2024/03/12 05:02:19;;;;;;;0.97;0.97;;;;;;;4.64;75.99;100193.94;4940191;28;20062;-80
2024/03/12 05:04:45;;;;;;;2.43;1.20;;;;;;;4.67;75.26;100188.47;4932020;28;20050;-70
2024/03/12 05:07:14;;;;;;;2.00;1.20;;;;;;;4.71;74.86;100203.06;4943832;28;20130;-84
2024/03/12 05:09:42;;;;;;;1.47;1.00;;;;;;;4.75;74.63;100202.75;4943537;29;20070;-79
2024/03/12 05:12:09;;;;;;;1.20;1.10;;;;;;;4.75;74.44;100202.75;4994841;28;20173;-81
2024/03/12 05:14:36;;;;;;;1.80;1.20;;;;;;;4.80;74.11;100203.25;5012358;28;20514;-82
2024/03/12 05:17:05;;;;;;;;;;;;;;;4.96;74.44;100211.78;4990985;28;20072;-83
2024/03/12 05:19:33;;;;;;;1.40;1.10;;;;;;;4.88;73.67;100208.00;4991693;28;19921;-80
2024/03/12 05:22:02;;;;;;;1.67;1.23;;;;;;;4.98;73.62;100206.41;5007079;28;20056;-83
2024/03/12 05:24:31;;;;;;;2.30;1.10;;;;;;;5.01;72.78;100211.44;5001635;28;20489;-82
2024/03/12 05:26:59;;;;;;;1.70;1.03;;;;;;;5.09;72.19;100212.56;4971488;28;20069;-82
2024/03/12 05:29:33;;;;;;;1.20;1.10;;;;;;;5.20;71.85;100209.16;5023879;28;20114;-83
2024/03/12 05:32:17;;;;;;;2.17;1.97;;;;;;;5.31;71.50;100209.22;5076135;28;20048;-84
2024/03/12 05:34:58;;;;;;;1.47;1.10;;;;;;;5.42;70.92;100219.84;5094730;28;20048;-80
2024/03/12 05:40:17;;;;;;;1.50;1.20;;;;;;;5.49;69.56;100226.31;5095226;28;20064;-84
2024/03/12 05:48:18;;;;;;;1.40;1.30;;;;;;;5.77;68.50;100225.13;5076895;28;20045;-73
2024/03/12 05:50:43;;;;;;;2.73;1.50;;;;;;;5.83;67.54;100233.47;5071942;28;20432;-79
2024/03/12 05:53:09;;;;;;;1.30;1.20;;;;;;;5.92;67.38;100230.16;5049442;28;20090;-82
2024/03/12 05:55:35;;;;;;;1.60;1.30;;;;;;;6.01;66.74;100224.19;5049136;28;20040;-83
2024/03/12 05:58:03;;;;;;;2.70;1.30;;;;;;;6.16;66.35;100230.97;5096964;28;20048;-83
2024/03/12 06:00:33;;;;;;;1.60;1.50;;;;;;;6.32;65.77;100231.47;5077331;28;20052;-84
2024/03/12 06:02:59;;;;;;;2.37;1.70;;;;;;;6.43;64.41;100242.06;5042974;28;20052;-82
2024/03/12 06:05:26;;;;;;;3.00;1.80;;;;;;;6.51;63.73;100238.81;5009242;28;20372;-81
2024/03/12 06:07:53;;;;;;;1.80;1.60;;;;;;;6.48;63.13;100234.63;5040115;28;20064;-79
2024/03/12 06:10:19;;;;;;;3.10;1.87;;;;;;;6.50;63.17;100235.34;5083393;28;20112;-76
2024/03/12 06:12:45;;;;;;;1.43;1.20;;;;;;;6.49;62.99;100233.66;5054895;28;20049;-80
2024/03/12 06:15:11;;;;;;;1.50;1.40;;;;;;;6.47;63.17;100232.94;5071601;28;20064;-78
2024/03/12 06:17:43;;;;;;;2.27;1.47;;;;;;;6.52;63.35;100241.34;5023242;28;20059;-79
2024/03/12 06:20:16;;;;;;;3.10;1.50;;;;;;;6.57;63.29;100244.47;5086657;28;20050;-79
2024/03/12 06:22:45;;;;;;;1.73;1.40;;;;;;;6.59;62.86;100241.72;5047464;28;20048;-80
2024/03/12 06:25:12;;;;;;;2.33;1.70;;;;;;;6.67;62.90;100240.16;5023105;28;20048;-83
2024/03/12 06:27:42;;;;;;;5.13;1.83;;;;;;;6.68;62.32;100239.22;5032859;28;20088;-80
2024/03/12 06:30:14;;;;;;;1.67;1.40;;;;;;;6.82;62.46;100243.41;5016113;28;20056;-83
2024/03/12 06:32:41;;;;;;;2.53;1.63;;;;;;;6.92;61.71;100239.06;4999911;28;20077;-82
2024/03/12 06:35:12;;;;;;;2.27;1.53;;;;;;;7.20;61.95;100245.66;4980437;28;20152;-82
2024/03/12 06:37:43;;;;;;;1.65;1.35;;;;;;;7.38;60.54;100252.16;4989267;28;20073;-82
2024/03/12 06:40:17;;;;;;;1.83;1.30;;;;;;;7.65;59.85;100250.75;5032544;28;20065;-84
2024/03/12 06:42:46;;;;;;;2.83;2.00;;;;;;;7.73;58.43;100239.56;4926103;28;20294;-80
2024/03/12 06:45:15;;;;;;;3.67;1.58;;;;;;;7.84;57.84;100242.16;4909671;28;20073;-80
2024/03/12 06:47:41;;;;;;;2.22;1.60;;;;;;;7.93;56.92;100244.88;4956574;28;20445;-79
2024/03/12 06:50:08;;;;;;;2.08;1.88;;;;;;;8.00;56.38;100253.13;4921805;29;20150;-81
2024/03/12 06:52:36;;;;;;;3.58;1.60;;;;;;;8.06;55.74;100244.69;4938343;29;20612;-79
2024/03/12 06:55:12;;;;;;;2.20;1.50;;;;;;;8.20;56.23;100247.03;4953772;29;20058;-78
2024/03/12 06:57:48;;;;;;;3.63;1.55;;;;;;;8.35;55.52;100251.06;4956327;28;20067;-79
2024/03/12 07:00:31;;;;;;;2.80;1.58;;;;;;;8.36;55.18;100235.06;4974983;28;20124;-79
2024/03/12 07:03:02;;;;;;;2.55;1.48;;;;;;;8.46;55.24;100245.72;4957523;28;20043;-78
2024/03/12 07:05:29;;;;;;;;;;;;;;;8.62;54.18;100254.03;4961136;28;20066;-80
2024/03/12 07:07:55;;;;;;;2.38;1.80;;;;;;;8.51;53.92;100252.31;4956290;28;19985;-80
2024/03/12 07:10:26;;;;;;;3.30;1.73;;;;;;;8.55;53.77;100245.78;4953519;28;20249;-79
2024/03/12 07:12:55;;;;;;;3.28;1.83;;;;;;;8.59;53.30;100249.81;4953678;28;20047;-66
2024/03/12 07:15:20;;;;;;;3.10;1.50;;;;;;;8.57;53.06;100257.09;4952746;28;20097;-66
2024/03/12 07:17:47;;;;;;;1.60;1.50;;;;;;;8.57;53.01;100249.13;4952599;28;20079;-67
2024/03/12 07:20:15;;;;;;;1.75;1.60;;;;;;;8.62;52.77;100251.41;4936277;29;20165;-67
2024/03/12 07:22:43;;;;;;;1.83;1.52;;;;;;;8.73;53.02;100245.19;4920245;29;20070;-67
2024/03/12 07:25:13;;;;;;;1.50;1.40;;;;;;;8.83;52.12;100251.34;4935933;29;20067;-68
2024/03/12 07:27:39;;;;;;;7.95;1.70;;;;;;;8.70;51.15;100254.25;4970656;28;20055;-68
2024/03/12 07:30:10;;;;;;;8.38;1.90;;;;;;;8.63;50.97;100250.41;4955095;28;20382;-69
2024/03/12 07:32:35;;;;;;;;;;;;;;;8.74;51.96;100258.28;4971836;28;20149;-68
2024/03/12 07:35:01;;;;;;;2.33;1.50;;;;;;;8.72;51.79;100259.41;4955089;28;19990;-67
2024/03/12 07:37:29;;;;;;;3.80;1.60;;;;;;;8.77;51.15;100262.47;4971603;28;20513;-66
2024/03/12 07:39:56;;;;;;;2.72;1.70;;;;;;;8.76;51.00;100258.16;5007198;28;20136;-66
2024/03/12 07:42:23;;;;;;;3.22;1.70;;;;;;;8.65;50.74;100264.38;4994156;28;20045;-67
2024/03/12 07:44:49;;;;;;;2.15;1.73;;;;;;;8.85;51.05;100246.75;5010300;28;20404;-67
2024/03/12 07:47:15;;;;;;;4.18;2.00;;;;;;;9.08;50.08;100253.56;5010294;28;20045;-67
2024/03/12 07:49:41;;;;;;;3.20;1.60;;;;;;;9.21;49.50;100256.84;4993809;28;20042;-68
2024/03/12 07:52:13;;;;;;;3.13;1.33;;;;;;;9.49;49.50;100256.91;5028909;28;20053;-68
2024/03/12 07:54:39;;;;;;;3.33;1.70;;;;;;;9.69;48.85;100257.78;5057580;28;20060;-68
2024/03/12 07:57:11;;;;;;;2.22;1.40;;;;;;;9.97;48.40;100252.50;5070793;28;20044;-68
2024/03/12 07:59:37;;;;;;;2.00;1.50;;;;;;;10.21;47.52;100252.94;5054984;28;20037;-68
2024/03/12 08:02:22;;;;;;;2.97;1.95;;;;;;;10.50;46.21;100252.09;5054113;28;20467;-69
2024/03/12 08:04:48;;;;;;;1.90;1.70;;;;;;;10.96;44.85;100252.91;5071754;28;20044;-68
2024/03/12 08:07:14;;;;;;;1.77;1.50;;;;;;;11.58;43.57;100252.19;5071620;28;20106;-67
2024/03/12 08:09:44;;;;;;;4.85;1.90;;;;;;;11.98;41.34;100249.16;5071573;28;20453;-68
2024/03/12 08:12:13;;;;;;;3.63;1.40;;;;;;;12.13;40.99;100263.63;5070761;28;20101;-68
2024/03/12 08:14:40;;;;;;;2.60;1.40;;;;;;;12.08;40.83;100253.41;5071490;28;20367;-67
2024/03/12 08:17:07;;;;;;;2.40;1.40;;;;;;;12.05;40.64;100248.41;5070517;28;20045;-68
2024/03/12 08:19:34;;;;;;;1.85;1.42;;;;;;;12.12;40.58;100254.78;5054407;28;20075;-67
2024/03/12 08:22:00;;;;;;;2.42;1.20;;;;;;;12.06;40.43;100249.22;5070879;28;20136;-67
2024/03/12 08:24:26;;;;;;;1.58;1.17;;;;;;;11.96;40.33;100251.97;5054438;28;20055;-66
2024/03/12 08:26:52;;;;;;;1.85;1.50;;;;;;;11.72;40.04;100252.56;5071533;28;20056;-68
2024/03/12 08:29:18;;;;;;;2.38;1.50;;;;;;;11.57;40.27;100250.53;5062101;28;20065;-67
2024/03/12 08:31:44;;;;;;;2.40;1.58;;;;;;;11.55;40.35;100250.69;5054480;28;20132;-67
2024/03/12 08:34:15;;;;;;;3.42;1.30;;;;;;;11.69;39.87;100252.03;5055163;28;20123;-68
2024/03/12 08:36:46;;;;;;;;;;;;;;;11.88;40.02;100249.25;5021719;28;20037;-67
2024/03/12 08:39:11;;;;;;;2.13;1.93;;;;;;;12.26;39.79;100248.91;5054969;28;19930;-67
2024/03/12 08:41:40;;;;;;;2.42;1.40;;;;;;;12.63;38.88;100249.53;5054975;28;20045;-68
2024/03/12 08:44:06;;;;;;;1.95;1.30;;;;;;;12.79;38.28;100251.47;5021052;28;20037;-68
2024/03/12 08:46:35;;;;;;;4.13;1.65;;;;;;;14.27;36.76;100241.84;5038434;28;20120;-67
2024/03/12 08:49:05;;;;;;;5.18;3.15;;;;;;;17.31;32.91;100247.28;5055626;28;20478;-68
2024/03/12 08:51:35;;;;;;;2.50;1.50;;;;;;;17.90;29.65;100253.38;5017277;28;20057;-68
2024/03/12 08:54:03;;;;;;;1.67;1.40;;;;;;;17.63;28.70;100254.97;5032972;28;20159;-66
2024/03/12 08:56:37;;;;;;;1.30;1.20;;;;;;;16.89;28.56;100249.75;5032966;28;20505;-67
2024/03/12 08:59:06;;;;;;;5.00;1.63;;;;;;;16.03;29.15;100254.66;4968547;28;20447;-67
2024/03/12 09:01:33;;;;;;;1.67;1.23;;;;;;;15.24;29.75;100254.03;5016578;28;20400;-67
2024/03/12 09:03:59;;;;;;;2.15;1.20;;;;;;;14.75;30.38;100250.66;5016230;28;20522;-66
2024/03/12 09:06:26;;;;;;;2.20;1.23;;;;;;;14.26;30.80;100230.31;5016013;28;20164;-66
2024/03/12 09:08:51;;;;;;;1.58;1.30;;;;;;;13.85;31.61;100243.78;5032683;28;20622;-67
2024/03/12 09:11:17;;;;;;;3.33;1.27;;;;;;;13.54;32.23;100238.19;5032680;28;20061;-67
2024/03/12 09:13:46;;;;;;;3.20;1.20;;;;;;;13.27;32.50;100239.25;5016018;28;20384;-68
2024/03/12 09:16:12;;;;;;;2.35;1.30;;;;;;;13.05;32.76;100242.47;5016192;28;20049;-67
2024/03/12 09:18:42;;;;;;;1.90;1.00;;;;;;;12.88;32.83;100240.72;5032521;28;20041;-68
2024/03/12 09:21:15;;;;;;;3.10;2.80;;;;;;;14.28;32.25;100235.50;5015938;28;20045;-67
2024/03/12 09:23:42;;;;;;;3.33;3.03;;;;;;;17.37;28.92;100245.69;5037324;28;20106;-67
2024/03/12 09:26:08;;;;;;;3.50;3.20;;;;;;;20.90;25.03;100245.06;5054735;28;20041;-67
2024/03/12 09:28:36;;;;;;;3.97;2.90;;;;;;;24.12;21.10;100241.41;5060528;28;20049;-68
2024/03/12 09:31:04;;;;;;;3.10;2.90;;;;;;;26.93;18.18;100241.22;5040658;28;20068;-67
2024/03/12 09:33:31;;;;;;;2.17;1.00;;;;;;;28.02;16.06;100245.75;5073374;28;20051;-67
2024/03/12 09:35:57;;;;;;;1.17;1.02;;;;;;;26.71;16.37;100232.16;5073630;28;20064;-68
2024/03/12 09:38:24;;;;;;;3.33;1.25;;;;;;;25.56;17.00;100236.19;5074215;28;20052;-67
2024/03/12 09:40:53;;;;;;;4.22;1.10;;;;;;;24.01;18.16;100234.06;5073558;28;20048;-67
2024/03/12 09:43:21;;;;;;;2.28;1.20;;;;;;;23.48;18.35;100238.47;5072901;28;20040;-67
2024/03/12 09:45:46;;;;;;;1.50;1.40;;;;;;;22.61;19.00;100230.59;5056134;28;20047;-67
2024/03/12 09:48:14;;;;;;;2.15;1.65;;;;;;;22.79;19.24;100230.63;5039670;28;20036;-67
2024/03/12 09:50:42;;;;;;;2.72;1.27;;;;;;;23.26;18.60;100229.97;5072919;28;20138;-67
2024/03/12 09:53:13;;;;;;;6.32;1.73;;;;;;;24.31;17.84;100239.47;5040069;28;20059;-67
2024/03/12 09:55:40;;;;;;;3.47;3.17;;;;;;;25.70;16.85;100230.25;5035474;28;20051;-68
2024/03/12 09:58:07;;;;;;;3.30;3.10;;;;;;;27.89;15.34;100227.84;5018679;28;20123;-67
2024/03/12 10:00:34;;;;;;;1.52;1.00;;;;;;;27.74;14.62;100228.44;5002551;28;20049;-67
2024/03/12 10:03:02;;;;;;;2.67;2.47;;;;;;;28.83;14.11;100227.09;5035580;28;20113;-68
2024/03/12 10:05:28;;;;;;;6.05;2.50;;;;;;;29.99;13.12;100223.06;5052017;28;20221;-68
2024/03/12 10:08:13;;;;;;;3.72;2.47;;;;;;;31.59;12.21;100224.94;5051469;28;20530;-68
2024/03/12 10:10:44;;;;;;;3.35;2.40;;;;;;;33.04;11.74;100219.56;5048335;28;20101;-67
2024/03/12 10:13:17;;;;;;;2.65;2.45;;;;;;;34.16;10.71;100215.97;5014329;28;20395;-68
2024/03/12 10:15:58;;;;;;;2.80;2.35;;;;;;;35.06;9.84;100213.69;5030578;28;20342;-68
2024/03/12 10:18:27;;;;;;;5.43;2.20;;;;;;;36.02;9.73;100213.34;5030551;28;20041;-68
2024/03/12 10:21:01;;;;;;;0.93;0.85;;;;;;;35.62;9.44;100212.28;4980061;28;20119;-68
2024/03/12 10:23:29;;;;;;;2.08;1.98;;;;;;;35.18;9.90;100200.19;5015501;28;20050;-68
2024/03/12 10:26:12;;;;;;;3.22;1.77;;;;;;;35.64;9.31;100207.25;5035789;28;20049;-69
2024/03/12 10:28:41;;;;;;;1.90;1.80;;;;;;;35.78;9.16;100198.13;5046859;28;20053;-67
2024/03/12 10:31:09;;;;;;;1.80;1.70;;;;;;;35.98;8.83;100203.22;4999526;28;20140;-67
2024/03/12 10:33:48;;;;;;;2.20;1.65;;;;;;;36.34;8.68;100204.03;5032159;28;20069;-68
2024/03/12 10:36:30;;;;;;;3.20;1.70;;;;;;;36.65;8.27;100199.38;5014925;28;20127;-70
2024/03/12 10:38:56;;;;;;;2.13;1.80;;;;;;;36.71;8.19;100200.88;5032054;28;20122;-68
2024/03/12 10:41:22;;;;;;;2.15;1.92;;;;;;;36.90;7.85;100187.69;5015497;28;20084;-69
2024/03/12 10:43:55;;;;;;;1.65;1.50;;;;;;;36.73;7.85;100193.91;5015598;28;20046;-68
2024/03/12 10:46:23;;;;;;;2.03;1.92;;;;;;;36.86;8.29;100192.19;4999168;28;20956;-67
2024/03/12 10:48:51;;;;;;;1.90;1.00;;;;;;;36.61;8.19;100190.88;4999159;28;20160;-67
2024/03/12 10:51:19;;;;;;;3.20;1.10;;;;;;;35.61;8.17;100191.28;5031976;28;20480;-67
2024/03/12 10:53:53;;;;;;;3.47;1.83;;;;;;;35.01;8.63;100180.63;4975198;28;20061;-66
2024/03/12 10:56:20;;;;;;;2.30;2.10;;;;;;;34.79;8.68;100181.28;4972058;28;20149;-68
2024/03/12 10:58:49;;;;;;;2.15;1.95;;;;;;;34.35;8.68;100172.66;4956437;28;20050;-67
2024/03/12 11:01:17;;;;;;;3.00;2.58;;;;;;;34.10;8.70;100176.66;4908174;28;20101;-68
2024/03/12 11:03:44;;;;;;;1.92;1.83;;;;;;;33.32;8.85;100180.16;4955451;28;20110;-68
2024/03/12 11:06:13;;;;;;;1.52;1.42;;;;;;;33.62;8.87;100177.84;4938861;28;20047;-68
2024/03/12 11:08:45;;;;;;;3.70;2.33;;;;;;;34.07;8.87;100174.44;4938245;28;20185;-68
2024/03/12 11:11:11;;;;;;;1.98;1.60;;;;;;;34.43;8.42;100177.50;4921582;28;20116;-68
2024/03/12 11:13:38;;;;;;;2.35;2.05;;;;;;;34.91;8.37;100180.81;4937573;28;20062;-67
2024/03/12 11:16:13;;;;;;;1.73;1.60;;;;;;;35.54;7.98;100176.25;4953678;28;20438;-68
2024/03/12 11:18:39;;;;;;;1.60;1.38;;;;;;;35.60;8.26;100175.00;4922209;28;20058;-67
2024/03/12 11:21:11;;;;;;;1.42;0.95;;;;;;;33.29;8.75;100178.78;4953678;28;20047;-68
2024/03/12 11:23:37;;;;;;;2.13;1.75;;;;;;;32.04;9.48;100167.03;4955636;28;20126;-68
2024/03/12 11:26:04;;;;;;;1.55;1.40;;;;;;;31.55;9.84;100166.19;4990114;28;20120;-67
2024/03/12 11:28:32;;;;;;;1.50;1.40;;;;;;;31.34;9.95;100167.38;4942403;28;20045;-69
2024/03/12 11:31:05;;;;;;;1.35;1.25;;;;;;;31.24;9.88;100167.38;4989846;28;20409;-71
2024/03/12 11:33:52;;;;;;;2.42;1.33;;;;;;;31.49;9.85;100169.22;4975004;28;20133;-68
2024/03/12 11:36:24;;;;;;;2.90;1.10;;;;;;;32.15;9.63;100168.56;4974429;28;20482;-68
2024/03/12 11:38:54;;;;;;;1.40;1.30;;;;;;;32.44;9.04;100174.16;4990014;28;20065;-67
2024/03/12 11:41:20;;;;;;;;;;;;;;;32.56;9.09;100169.91;4974656;28;20065;-66
2024/03/12 11:43:46;;;;;;;1.30;1.20;;;;;;;32.30;9.33;100167.63;4935338;29;20369;-69
2024/03/12 11:46:17;;;;;;;0.95;0.90;;;;;;;31.86;9.22;100170.41;4976323;28;20464;-70
2024/03/12 11:48:45;;;;;;;3.22;1.40;;;;;;;31.38;9.65;100173.94;4990696;28;20046;-71